Time;durP1;ratioP1;P1;durP2;ratioP2;P2;SDS_P1;SDS_P2;PMS_P1;PMS_P2;Temp;Humidity;BMP_temperature;BMP_pressure;BME280_temperature;BME280_humidity;BME280_pressure;Samples;Min_cycle;Max_cycle;Signal;HPM_P1;HPM_P2
2024/01/06 00:01:51;;;;;;;18.63;12.93;;;7.50;29.30;;;;;;5007657;28;20478;-68
2024/01/06 00:04:19;;;;;;;18.63;14.40;;;7.50;29.30;;;;;;5008628;28;20482;-66
2024/01/06 00:06:45;;;;;;;20.43;15.43;;;7.50;29.40;;;;;;5010182;28;20958;-67
2024/01/06 00:09:12;;;;;;;19.23;14.60;;;7.50;29.40;;;;;;5014507;28;20488;-66
2024/01/06 00:11:40;;;;;;;19.77;14.10;;;7.50;29.40;;;;;;5011231;28;20495;-66
2024/01/06 00:14:06;;;;;;;21.47;15.07;;;7.60;29.20;;;;;;5006082;28;20843;-67
2024/01/06 00:16:33;;;;;;;19.13;15.13;;;7.60;29.20;;;;;;5010813;28;20443;-67
2024/01/06 00:19:00;;;;;;;18.17;14.50;;;7.60;29.10;;;;;;5035615;28;20443;-67
2024/01/06 00:21:28;;;;;;;22.13;15.37;;;7.60;29.00;;;;;;5023671;28;20448;-67
2024/01/06 00:23:56;;;;;;;23.27;14.00;;;7.60;29.10;;;;;;5012792;28;20491;-67
2024/01/06 00:26:23;;;;;;;21.10;14.20;;;7.60;28.90;;;;;;5004202;28;20547;-67
2024/01/06 00:28:50;;;;;;;20.43;16.27;;;7.60;28.80;;;;;;5012519;28;20487;-67
2024/01/06 00:31:16;;;;;;;17.60;13.43;;;7.60;28.90;;;;;;5007130;28;20468;-67
2024/01/06 00:33:44;;;;;;;20.87;14.40;;;7.60;28.80;;;;;;5010846;28;20487;-67
2024/01/06 00:36:11;;;;;;;17.77;13.23;;;7.70;28.80;;;;;;5010020;28;20459;-67
2024/01/06 00:38:39;;;;;;;17.90;13.47;;;7.70;28.80;;;;;;5014261;28;20455;-66
2024/01/06 00:41:05;;;;;;;19.63;13.70;;;7.60;28.70;;;;;;5012055;28;20541;-66
2024/01/06 00:43:32;;;;;;;21.20;14.30;;;7.70;28.70;;;;;;5015371;28;20491;-66
2024/01/06 00:45:59;;;;;;;18.40;12.90;;;7.70;28.60;;;;;;5020595;28;20459;-67
2024/01/06 00:48:26;;;;;;;18.33;12.90;;;7.70;28.70;;;;;;5010601;28;20510;-67
2024/01/06 00:50:52;;;;;;;21.13;12.80;;;7.70;28.50;;;;;;5015986;28;20464;-67
2024/01/06 00:53:19;;;;;;;18.00;11.83;;;7.70;28.40;;;;;;5010664;28;20491;-67
2024/01/06 00:55:47;;;;;;;15.10;11.27;;;7.70;28.50;;;;;;5017276;28;20461;-67
2024/01/06 00:58:14;;;;;;;15.43;9.97;;;7.70;28.50;;;;;;5020374;28;20464;-67
2024/01/06 01:00:41;;;;;;;15.63;10.40;;;7.70;28.50;;;;;;5012170;28;20468;-67
2024/01/06 01:03:07;;;;;;;15.73;10.13;;;7.70;28.40;;;;;;5015180;28;20485;-67
2024/01/06 01:05:34;;;;;;;17.10;8.80;;;7.70;28.40;;;;;;5011188;28;20486;-67
2024/01/06 01:08:01;;;;;;;13.73;8.57;;;7.70;28.20;;;;;;5013253;28;20451;-67
2024/01/06 01:10:27;;;;;;;11.83;8.03;;;7.60;28.10;;;;;;5005748;28;20462;-67
2024/01/06 01:12:55;;;;;;;15.07;7.30;;;7.60;28.00;;;;;;5012315;28;20505;-67
2024/01/06 01:15:22;;;;;;;12.80;6.83;;;7.60;27.80;;;;;;5011439;28;20487;-67
2024/01/06 01:17:49;;;;;;;10.50;6.77;;;7.70;27.40;;;;;;5007194;28;20471;-67
2024/01/06 01:20:16;;;;;;;11.27;6.80;;;7.60;27.60;;;;;;5010650;28;20825;-67
2024/01/06 01:22:42;;;;;;;10.67;5.87;;;7.50;27.70;;;;;;5008531;28;20807;-67
2024/01/06 01:25:09;;;;;;;9.10;4.30;;;7.50;27.10;;;;;;5009683;28;20472;-67
2024/01/06 01:27:36;;;;;;;7.00;3.83;;;7.50;27.00;;;;;;5007398;28;20475;-67
2024/01/06 01:30:05;;;;;;;8.50;3.90;;;7.50;26.40;;;;;;5008859;28;20477;-67
2024/01/06 01:32:32;;;;;;;6.97;4.20;;;7.50;25.40;;;;;;5008195;28;20479;-67
2024/01/06 01:34:58;;;;;;;6.93;3.87;;;7.40;25.90;;;;;;5009231;28;20460;-67
2024/01/06 01:37:25;;;;;;;8.23;4.07;;;7.40;25.90;;;;;;5012773;28;20452;-67
2024/01/06 01:39:52;;;;;;;9.67;4.10;;;7.30;26.10;;;;;;5011795;28;20456;-67
2024/01/06 01:42:18;;;;;;;8.57;4.07;;;7.40;25.60;;;;;;5017512;28;20467;-67
2024/01/06 01:44:45;;;;;;;6.97;3.30;;;7.30;25.70;;;;;;5014153;28;20478;-67
2024/01/06 01:47:18;;;;;;;11.13;4.33;;;7.30;25.70;;;;;;5011368;28;20968;-67
2024/01/06 01:49:45;;;;;;;7.47;3.60;;;7.20;25.80;;;;;;5009127;28;21143;-67
2024/01/06 01:52:12;;;;;;;7.70;4.03;;;7.20;25.80;;;;;;5010089;28;20579;-67
2024/01/06 01:54:39;;;;;;;6.17;3.60;;;7.20;25.70;;;;;;5014839;28;21153;-67
2024/01/06 01:57:06;;;;;;;11.53;3.90;;;7.20;25.80;;;;;;5012611;28;20475;-67
2024/01/06 01:59:33;;;;;;;7.93;4.73;;;7.20;25.90;;;;;;5008915;28;20463;-67
2024/01/06 02:02:00;;;;;;;11.30;3.80;;;7.20;26.00;;;;;;5008601;28;20496;-67
2024/01/06 02:04:28;;;;;;;9.70;4.50;;;7.10;26.10;;;;;;5015766;28;20483;-67
2024/01/06 02:06:55;;;;;;;12.50;4.27;;;7.10;26.10;;;;;;5012920;28;20464;-67
2024/01/06 02:09:26;;;;;;;11.03;5.50;;;7.20;26.00;;;;;;5009852;28;20476;-66
2024/01/06 02:11:53;;;;;;;9.10;4.47;;;7.10;26.10;;;;;;5007776;28;20475;-67
2024/01/06 02:14:20;;;;;;;8.10;4.60;;;7.10;26.10;;;;;;5007375;28;20475;-67
2024/01/06 02:16:47;;;;;;;8.33;4.70;;;7.10;26.30;;;;;;5010657;28;20456;-67
2024/01/06 02:19:16;;;;;;;8.27;3.93;;;7.10;26.30;;;;;;5010157;28;20464;-66
2024/01/06 02:21:45;;;;;;;8.33;3.60;;;7.10;26.10;;;;;;5011025;28;20967;-67
2024/01/06 02:24:13;;;;;;;9.97;3.70;;;7.10;26.10;;;;;;5011535;28;20823;-67
2024/01/06 02:26:40;;;;;;;7.97;3.40;;;7.10;26.10;;;;;;5007241;28;20472;-67
2024/01/06 02:29:06;;;;;;;10.90;3.80;;;7.10;25.90;;;;;;5005682;28;20480;-67
2024/01/06 02:31:33;;;;;;;7.70;4.73;;;7.10;25.80;;;;;;5008326;28;20468;-67
2024/01/06 02:34:00;;;;;;;9.80;3.63;;;7.00;25.80;;;;;;5007611;28;20479;-67
2024/01/06 02:36:26;;;;;;;6.23;3.47;;;7.00;25.70;;;;;;5012746;28;20456;-67
2024/01/06 02:38:53;;;;;;;8.13;3.70;;;7.00;25.90;;;;;;5010897;28;20836;-67
2024/01/06 02:41:21;;;;;;;6.27;3.60;;;7.00;26.00;;;;;;5010010;28;20464;-67
2024/01/06 02:43:48;;;;;;;6.60;3.40;;;7.00;26.00;;;;;;5005281;28;20490;-67
2024/01/06 02:46:14;;;;;;;8.57;3.47;;;7.00;26.00;;;;;;5017070;28;20459;-67
2024/01/06 02:48:41;;;;;;;5.83;3.67;;;7.00;26.10;;;;;;5015940;28;20820;-67
2024/01/06 02:51:08;;;;;;;10.10;4.10;;;6.90;26.20;;;;;;5009438;28;20468;-67
2024/01/06 02:53:35;;;;;;;7.93;3.80;;;6.90;26.20;;;;;;5012623;28;20502;-67
2024/01/06 02:56:01;;;;;;;6.23;3.77;;;6.90;26.10;;;;;;5010771;28;20451;-67
2024/01/06 02:58:29;;;;;;;7.97;3.50;;;6.90;26.20;;;;;;5007617;28;20459;-67
2024/01/06 03:00:56;;;;;;;9.53;3.30;;;6.90;26.20;;;;;;5011502;28;20495;-67
2024/01/06 03:03:23;;;;;;;6.50;3.07;;;6.90;26.00;;;;;;5005636;28;20487;-67
2024/01/06 03:05:49;;;;;;;10.03;2.90;;;7.00;26.10;;;;;;5006271;28;20484;-67
2024/01/06 03:08:16;;;;;;;8.33;3.37;;;6.90;26.10;;;;;;5010121;28;20466;-67
2024/01/06 03:10:43;;;;;;;6.40;3.50;;;6.90;26.10;;;;;;5013122;28;20482;-67
2024/01/06 03:13:10;;;;;;;8.70;3.80;;;6.90;26.10;;;;;;5010082;28;20479;-67
2024/01/06 03:15:38;;;;;;;7.13;3.30;;;6.90;26.10;;;;;;5021727;28;20456;-67
2024/01/06 03:18:05;;;;;;;6.80;3.30;;;6.90;26.10;;;;;;5039751;28;20447;-67
2024/01/06 03:20:32;;;;;;;12.40;3.40;;;6.90;26.00;;;;;;5129772;22;20480;-66
2024/01/06 03:22:58;;;;;;;7.30;2.60;;;7.00;25.50;;;;;;5048655;28;20486;-66
2024/01/06 03:25:25;;;;;;;5.93;2.70;;;7.00;25.60;;;;;;5043922;28;20458;-66
2024/01/06 03:27:52;;;;;;;7.87;2.80;;;6.90;25.60;;;;;;5050051;28;20449;-65
2024/01/06 03:30:18;;;;;;;6.50;2.30;;;6.90;25.70;;;;;;5046333;28;20478;-65
2024/01/06 03:32:46;;;;;;;8.73;2.50;;;6.90;25.70;;;;;;5049438;28;20480;-65
2024/01/06 03:35:13;;;;;;;5.53;1.93;;;6.80;25.70;;;;;;5047857;28;20457;-65
2024/01/06 03:37:40;;;;;;;9.57;3.03;;;6.80;25.60;;;;;;5048666;28;20870;-65
2024/01/06 03:40:09;;;;;;;5.37;2.97;;;6.80;25.60;;;;;;5048549;28;20582;-65
2024/01/06 03:42:36;;;;;;;8.10;3.03;;;6.80;25.70;;;;;;5047005;28;21191;-65
2024/01/06 03:45:03;;;;;;;7.87;2.90;;;6.80;25.70;;;;;;5050553;28;20455;-65
2024/01/06 03:47:30;;;;;;;6.93;2.70;;;6.80;25.80;;;;;;5047903;28;20466;-65
2024/01/06 03:49:58;;;;;;;10.00;3.23;;;6.70;25.80;;;;;;5045761;28;20833;-65
2024/01/06 03:52:25;;;;;;;8.50;3.00;;;6.70;26.00;;;;;;5050882;28;20465;-65
2024/01/06 03:54:51;;;;;;;5.77;2.70;;;6.70;26.10;;;;;;5042069;28;20993;-66
2024/01/06 03:57:18;;;;;;;7.87;3.10;;;6.70;26.00;;;;;;5052320;28;20454;-66
2024/01/06 03:59:45;;;;;;;11.60;3.90;;;6.70;26.10;;;;;;5049627;28;20540;-66
2024/01/06 04:02:11;;;;;;;12.77;3.97;;;6.80;26.10;;;;;;5049783;28;20470;-66
2024/01/06 04:04:38;;;;;;;10.50;3.10;;;6.80;25.90;;;;;;5052948;28;20492;-66
2024/01/06 04:07:06;;;;;;;7.67;2.70;;;6.80;25.90;;;;;;5047823;28;20461;-66
2024/01/06 04:09:33;;;;;;;5.97;2.77;;;6.80;25.80;;;;;;5047156;28;20544;-66
2024/01/06 04:12:00;;;;;;;8.57;2.97;;;6.70;25.80;;;;;;5045278;28;20461;-67
2024/01/06 04:14:27;;;;;;;6.63;3.03;;;6.70;25.70;;;;;;5045971;28;20862;-66
2024/01/06 04:16:55;;;;;;;10.00;3.73;;;6.70;25.70;;;;;;5046566;28;20470;-66
2024/01/06 04:19:22;;;;;;;7.20;3.27;;;6.70;25.80;;;;;;5046869;28;20486;-66
2024/01/06 04:21:48;;;;;;;8.07;3.07;;;6.70;25.90;;;;;;5050218;28;21204;-67
2024/01/06 04:24:17;;;;;;;6.70;3.33;;;6.70;25.90;;;;;;5049918;28;20998;-66
2024/01/06 04:26:44;;;;;;;9.80;3.43;;;6.70;25.70;;;;;;5048408;28;20934;-66
2024/01/06 04:29:11;;;;;;;6.70;3.17;;;6.70;25.60;;;;;;5049597;28;20466;-66
2024/01/06 04:31:38;;;;;;;7.60;3.53;;;6.70;25.70;;;;;;5046097;28;20477;-66
2024/01/06 04:34:05;;;;;;;6.50;2.87;;;6.70;25.60;;;;;;5051012;28;21040;-66
2024/01/06 04:36:31;;;;;;;7.60;3.10;;;6.70;25.70;;;;;;5045645;28;20469;-66
2024/01/06 04:38:58;;;;;;;6.70;3.80;;;6.70;25.70;;;;;;5048005;28;20463;-66
2024/01/06 04:41:26;;;;;;;10.07;3.07;;;6.60;25.60;;;;;;5048782;28;20458;-66
2024/01/06 04:43:53;;;;;;;7.83;2.93;;;6.60;25.70;;;;;;5051992;28;21009;-66
2024/01/06 04:46:20;;;;;;;6.63;3.20;;;6.60;25.70;;;;;;5050490;28;20458;-66
2024/01/06 04:48:47;;;;;;;9.87;3.87;;;6.60;25.70;;;;;;5050505;28;20952;-67
2024/01/06 04:51:14;;;;;;;7.93;3.30;;;6.60;25.70;;;;;;5047474;28;20481;-66
2024/01/06 04:53:41;;;;;;;6.97;3.13;;;6.60;25.70;;;;;;5048103;28;20488;-66
2024/01/06 04:56:08;;;;;;;6.87;2.90;;;6.60;25.70;;;;;;5052895;28;20458;-66
2024/01/06 04:58:36;;;;;;;10.33;2.90;;;6.50;25.80;;;;;;5045086;28;20465;-67
2024/01/06 05:01:03;;;;;;;8.53;3.57;;;6.50;25.90;;;;;;5048358;28;20485;-67
2024/01/06 05:03:29;;;;;;;9.07;4.03;;;6.50;25.90;;;;;;5049543;28;20484;-66
2024/01/06 05:05:56;;;;;;;9.60;3.70;;;6.60;25.80;;;;;;5045672;28;20471;-66
2024/01/06 05:08:24;;;;;;;12.83;5.00;;;6.50;25.90;;;;;;5049688;28;20453;-67
2024/01/06 05:10:53;;;;;;;9.80;3.90;;;6.50;26.00;;;;;;5046933;28;20565;-66
2024/01/06 05:13:19;;;;;;;8.80;3.57;;;6.50;26.00;;;;;;5045295;28;20552;-67
2024/01/06 05:15:48;;;;;;;9.37;3.10;;;6.50;26.10;;;;;;5048725;28;20470;-67
2024/01/06 05:18:14;;;;;;;9.03;3.43;;;6.50;26.10;;;;;;5046598;28;20468;-66
2024/01/06 05:20:41;;;;;;;8.37;3.67;;;6.50;26.00;;;;;;5048128;28;20837;-67
2024/01/06 05:23:08;;;;;;;8.60;3.50;;;6.50;26.00;;;;;;5048673;28;20485;-66
2024/01/06 05:25:35;;;;;;;8.93;3.60;;;6.60;25.80;;;;;;5044140;28;20469;-66
2024/01/06 05:28:02;;;;;;;9.00;3.70;;;6.60;25.80;;;;;;5050010;28;20454;-66
2024/01/06 05:30:28;;;;;;;9.17;3.70;;;6.60;25.90;;;;;;5047102;28;20478;-66
2024/01/06 05:32:57;;;;;;;9.93;4.00;;;6.60;25.90;;;;;;5044864;28;20485;-66
2024/01/06 05:35:24;;;;;;;7.70;3.87;;;6.50;26.00;;;;;;5045152;28;20462;-66
2024/01/06 05:37:50;;;;;;;12.90;3.50;;;6.50;26.10;;;;;;5049698;28;20502;-66
2024/01/06 05:40:17;;;;;;;10.93;4.20;;;6.50;26.10;;;;;;5050384;28;20454;-67
2024/01/06 05:42:44;;;;;;;13.77;4.30;;;6.50;26.10;;;;;;5045117;28;20497;-66
2024/01/06 05:45:12;;;;;;;11.93;4.83;;;6.50;26.20;;;;;;5047999;28;20454;-66
2024/01/06 05:47:39;;;;;;;12.90;4.20;;;6.50;26.20;;;;;;5052485;28;20461;-67
2024/01/06 05:50:09;;;;;;;8.57;4.30;;;6.50;26.30;;;;;;5046944;28;20478;-66
2024/01/06 05:52:35;;;;;;;9.53;4.43;;;6.50;26.30;;;;;;5046700;28;21330;-66
2024/01/06 05:55:02;;;;;;;11.17;3.70;;;6.50;26.30;;;;;;5049651;28;20458;-66
2024/01/06 05:57:29;;;;;;;14.03;4.83;;;6.50;26.20;;;;;;5047806;28;20454;-66
2024/01/06 05:59:56;;;;;;;9.07;5.13;;;6.50;26.10;;;;;;5052017;28;20449;-67
2024/01/06 06:02:22;;;;;;;12.57;3.63;;;6.50;26.10;;;;;;5050145;28;20583;-66
2024/01/06 06:04:49;;;;;;;9.53;3.90;;;6.50;26.10;;;;;;5048162;28;21348;-67
2024/01/06 06:07:17;;;;;;;9.33;3.63;;;6.40;26.30;;;;;;5050190;28;20462;-67
2024/01/06 06:09:47;;;;;;;12.23;4.30;;;6.40;26.40;;;;;;5044633;28;20458;-66
2024/01/06 06:12:13;;;;;;;12.93;4.00;;;6.40;26.40;;;;;;5050191;28;20490;-66
2024/01/06 06:14:40;;;;;;;9.73;4.10;;;6.50;26.30;;;;;;5047925;28;21065;-66
2024/01/06 06:17:07;;;;;;;9.00;4.10;;;6.50;26.20;;;;;;5048612;28;20466;-67
2024/01/06 06:19:33;;;;;;;11.30;3.93;;;6.50;26.20;;;;;;5048061;28;20466;-66
2024/01/06 06:22:00;;;;;;;10.70;3.50;;;6.50;26.10;;;;;;5050554;28;20462;-66
2024/01/06 06:24:28;;;;;;;8.33;4.67;;;6.50;26.20;;;;;;5044393;28;20490;-66
2024/01/06 06:26:55;;;;;;;8.57;4.00;;;6.40;26.40;;;;;;5051050;28;20480;-67
2024/01/06 06:29:21;;;;;;;7.70;5.00;;;6.40;26.40;;;;;;5045297;28;20465;-67
2024/01/06 06:31:48;;;;;;;21.73;9.23;;;6.50;26.30;;;;;;5045820;28;20478;-66
2024/01/06 06:34:15;;;;;;;15.20;7.20;;;6.50;26.40;;;;;;5046930;28;20532;-66
2024/01/06 06:36:41;;;;;;;12.40;6.40;;;6.40;26.40;;;;;;5049311;28;20454;-66
2024/01/06 06:39:08;;;;;;;10.93;5.73;;;6.40;26.60;;;;;;5049846;28;20457;-67
2024/01/06 06:41:36;;;;;;;12.33;5.80;;;6.40;26.40;;;;;;5045149;28;20482;-66
2024/01/06 06:44:04;;;;;;;14.13;5.23;;;6.40;26.50;;;;;;5048829;28;20481;-66
2024/01/06 06:46:31;;;;;;;11.20;6.13;;;6.50;26.50;;;;;;5052827;28;20457;-66
2024/01/06 06:48:58;;;;;;;8.90;5.63;;;6.40;26.50;;;;;;5045049;28;20871;-66
2024/01/06 06:51:26;;;;;;;12.60;6.17;;;6.40;26.70;;;;;;5046380;28;20490;-66
2024/01/06 06:53:53;;;;;;;9.80;5.10;;;6.40;26.70;;;;;;5044400;28;20486;-66
2024/01/06 06:56:20;;;;;;;14.93;6.23;;;6.40;26.70;;;;;;5055831;28;20454;-66
2024/01/06 06:58:48;;;;;;;12.57;5.97;;;6.40;26.70;;;;;;5050032;28;20459;-66
2024/01/06 07:01:15;;;;;;;13.37;5.90;;;6.40;26.60;;;;;;5044789;28;20478;-66
2024/01/06 07:03:41;;;;;;;16.97;7.13;;;6.40;26.80;;;;;;5047588;28;20557;-66
2024/01/06 07:06:08;;;;;;;10.10;5.83;;;6.40;26.60;;;;;;5045478;28;20482;-66
2024/01/06 07:08:35;;;;;;;14.57;5.77;;;6.40;26.60;;;;;;5044719;28;20473;-66
2024/01/06 07:11:01;;;;;;;10.53;5.37;;;6.40;26.70;;;;;;5039336;28;20492;-66
2024/01/06 07:13:28;;;;;;;9.83;5.40;;;6.30;26.80;;;;;;5046134;28;20486;-66
2024/01/06 07:15:56;;;;;;;10.90;5.43;;;6.30;27.00;;;;;;5044200;28;20466;-67
2024/01/06 07:18:24;;;;;;;14.30;6.00;;;6.30;27.10;;;;;;5045418;28;20497;-66
2024/01/06 07:20:51;;;;;;;9.37;5.83;;;6.20;27.10;;;;;;5040869;28;20463;-66
2024/01/06 07:23:18;;;;;;;9.70;5.60;;;6.30;27.00;;;;;;5042946;28;20513;-66
2024/01/06 07:25:44;;;;;;;9.33;4.80;;;6.30;27.00;;;;;;5044005;28;20455;-66
2024/01/06 07:28:11;;;;;;;9.80;5.20;;;6.30;26.90;;;;;;5042155;28;20466;-67
2024/01/06 07:30:38;;;;;;;7.90;4.10;;;6.20;27.10;;;;;;5047063;28;20834;-66
2024/01/06 07:33:06;;;;;;;10.67;5.53;;;6.20;27.40;;;;;;5049557;28;20515;-66
2024/01/06 07:35:33;;;;;;;13.20;5.90;;;6.20;27.30;;;;;;5049953;28;20497;-66
2024/01/06 07:38:00;;;;;;;8.20;4.90;;;6.20;27.50;;;;;;5046856;28;20510;-66
2024/01/06 07:40:26;;;;;;;12.40;5.97;;;6.20;27.50;;;;;;5048747;28;20549;-66
2024/01/06 07:42:53;;;;;;;16.43;5.80;;;6.20;27.40;;;;;;5049138;28;22155;-66
2024/01/06 07:45:20;;;;;;;10.73;5.90;;;6.20;27.40;;;;;;5050219;28;20462;-66
2024/01/06 07:47:46;;;;;;;10.67;5.27;;;6.20;27.50;;;;;;5046589;28;20474;-66
2024/01/06 07:50:14;;;;;;;10.70;5.10;;;6.20;27.40;;;;;;5050411;28;20970;-66
2024/01/06 07:52:41;;;;;;;8.20;4.93;;;6.20;27.60;;;;;;5043422;28;20501;-66
2024/01/06 07:55:09;;;;;;;8.10;5.00;;;6.20;27.60;;;;;;5048218;28;20473;-66
2024/01/06 07:57:35;;;;;;;10.17;4.80;;;6.20;27.40;;;;;;5044190;28;20485;-69
2024/01/06 08:00:03;;;;;;;8.93;4.90;;;6.20;27.60;;;;;;5046291;28;20461;-69
2024/01/06 08:02:29;;;;;;;12.63;5.07;;;6.20;27.60;;;;;;5046146;28;20486;-69
2024/01/06 08:04:56;;;;;;;8.43;4.87;;;6.20;27.60;;;;;;5045608;28;20457;-69
2024/01/06 08:07:26;;;;;;;9.60;4.93;;;6.20;27.80;;;;;;5048414;28;20460;-69
2024/01/06 08:09:53;;;;;;;10.60;4.50;;;6.20;27.60;;;;;;5044016;28;20473;-69
2024/01/06 08:12:19;;;;;;;11.63;5.17;;;6.20;27.60;;;;;;5045188;28;20568;-69
2024/01/06 08:14:46;;;;;;;10.73;3.87;;;6.20;27.10;;;;;;5039085;28;20483;-70
2024/01/06 08:17:13;;;;;;;7.07;4.23;;;6.20;27.40;;;;;;5041131;28;20470;-70
2024/01/06 08:19:41;;;;;;;8.40;3.70;;;6.20;26.80;;;;;;5045382;28;20557;-69
2024/01/06 08:22:08;;;;;;;7.73;4.50;;;6.20;26.50;;;;;;5048202;28;20462;-70
2024/01/06 08:24:36;;;;;;;10.77;4.20;;;6.20;26.40;;;;;;5049169;28;20486;-70
2024/01/06 08:27:03;;;;;;;10.30;4.00;;;6.20;25.90;;;;;;5048869;28;20475;-70
2024/01/06 08:29:30;;;;;;;6.70;3.93;;;6.20;25.80;;;;;;5044694;28;20960;-70
2024/01/06 08:31:56;;;;;;;8.83;3.87;;;6.30;25.30;;;;;;5047300;28;20482;-70
2024/01/06 08:34:23;;;;;;;7.20;3.20;;;6.20;25.00;;;;;;5045024;28;21359;-70
2024/01/06 08:36:50;;;;;;;9.20;4.50;;;6.30;25.10;;;;;;5048760;28;20473;-69
2024/01/06 08:39:17;;;;;;;6.50;3.40;;;6.20;25.00;;;;;;5047452;28;20470;-70
2024/01/06 08:41:46;;;;;;;11.67;4.07;;;6.20;25.20;;;;;;5044158;28;20463;-70
2024/01/06 08:44:13;;;;;;;10.00;5.37;;;6.20;25.60;;;;;;5045180;28;20855;-70
2024/01/06 08:46:39;;;;;;;15.57;7.13;;;6.20;25.50;;;;;;5042550;28;20470;-69
2024/01/06 08:49:06;;;;;;;10.17;4.90;;;6.20;25.90;;;;;;5046639;28;20473;-70
2024/01/06 08:51:33;;;;;;;10.03;4.37;;;6.20;26.10;;;;;;5048240;28;20479;-70
2024/01/06 08:53:59;;;;;;;12.03;7.73;;;6.20;25.80;;;;;;5047050;28;20589;-69
2024/01/06 08:56:27;;;;;;;9.53;5.30;;;6.20;25.40;;;;;;5043106;28;20473;-69
2024/01/06 08:58:56;;;;;;;7.10;4.20;;;6.30;25.40;;;;;;5045559;28;20466;-68
2024/01/06 09:01:23;;;;;;;11.60;4.43;;;6.30;25.40;;;;;;5043880;28;20588;-68
2024/01/06 09:03:50;;;;;;;11.60;4.20;;;6.40;25.20;;;;;;5047155;28;20478;-68
2024/01/06 09:06:17;;;;;;;9.90;4.07;;;6.40;25.20;;;;;;5046706;28;20958;-69
2024/01/06 09:08:44;;;;;;;8.70;4.10;;;6.40;25.30;;;;;;5048227;28;20480;-68
2024/01/06 09:11:10;;;;;;;9.57;4.17;;;6.30;25.60;;;;;;5047897;28;20564;-70
2024/01/06 09:13:37;;;;;;;7.93;4.50;;;6.40;25.40;;;;;;5050484;28;20489;-69
2024/01/06 09:16:05;;;;;;;8.93;5.00;;;6.40;25.40;;;;;;5051891;28;20457;-70
2024/01/06 09:18:32;;;;;;;9.03;4.80;;;6.40;25.70;;;;;;5050450;28;20463;-70
2024/01/06 09:20:59;;;;;;;8.53;5.10;;;6.40;25.70;;;;;;5059905;22;20582;-65
2024/01/06 09:23:26;;;;;;;8.30;4.77;;;6.40;25.80;;;;;;5040008;28;20493;-66
2024/01/06 09:25:52;;;;;;;14.50;5.13;;;6.40;25.90;;;;;;5030523;28;20464;-66
2024/01/06 09:28:21;;;;;;;10.10;5.17;;;6.40;25.00;;;;;;5025401;28;21158;-69
2024/01/06 09:30:47;;;;;;;12.33;4.50;;;6.50;25.00;;;;;;5024040;28;20733;-67
2024/01/06 09:33:17;;;;;;;7.83;4.80;;;6.50;24.80;;;;;;5029929;28;20489;-66
2024/01/06 09:35:44;;;;;;;12.73;5.03;;;6.50;25.00;;;;;;5024048;28;20459;-67
2024/01/06 09:38:11;;;;;;;8.73;4.90;;;6.50;25.10;;;;;;5031742;28;20962;-66
2024/01/06 09:40:43;;;;;;;8.63;4.90;;;6.50;24.90;;;;;;5024963;28;20459;-66
2024/01/06 09:43:09;;;;;;;7.90;4.97;;;6.50;25.20;;;;;;5028148;28;21093;-66
2024/01/06 09:45:37;;;;;;;9.30;4.20;;;6.50;25.30;;;;;;5025292;28;20467;-66
2024/01/06 09:48:11;;;;;;;9.07;4.50;;;6.50;25.00;;;;;;5028976;28;20906;-66
2024/01/06 09:50:41;;;;;;;12.30;5.70;;;6.50;25.20;;;;;;5028307;28;20464;-65
2024/01/06 09:53:10;;;;;;;12.60;6.23;;;6.40;25.10;;;;;;5027053;28;20487;-66
2024/01/06 09:55:38;;;;;;;11.90;6.47;;;6.40;25.30;;;;;;5028433;28;20520;-64
2024/01/06 09:58:05;;;;;;;15.90;9.53;;;6.40;25.40;;;;;;5030608;28;20475;-65
2024/01/06 10:00:33;;;;;;;13.03;5.90;;;6.50;25.70;;;;;;5024687;28;21031;-67
2024/01/06 10:03:00;;;;;;;10.10;6.10;;;6.50;25.90;;;;;;5027143;28;21035;-67
2024/01/06 10:05:26;;;;;;;8.70;5.17;;;6.60;25.90;;;;;;5028495;28;20474;-67
2024/01/06 10:07:54;;;;;;;11.17;6.07;;;6.60;25.80;;;;;;5030164;28;20669;-68
2024/01/06 10:10:24;;;;;;;10.50;5.97;;;6.70;25.70;;;;;;5023736;28;20472;-68
2024/01/06 10:12:54;;;;;;;8.83;4.83;;;6.80;25.30;;;;;;5025679;28;20491;-68
2024/01/06 10:15:21;;;;;;;8.00;4.93;;;6.80;25.30;;;;;;5020401;28;20467;-69
2024/01/06 10:17:47;;;;;;;7.90;5.13;;;6.90;25.20;;;;;;5028900;28;20598;-69
2024/01/06 10:20:15;;;;;;;8.40;5.70;;;6.90;25.00;;;;;;5029972;28;20466;-67
2024/01/06 10:22:42;;;;;;;14.70;5.20;;;6.90;25.00;;;;;;5029524;28;20459;-68
2024/01/06 10:25:11;;;;;;;7.57;5.00;;;6.90;25.10;;;;;;5024491;28;20469;-68
2024/01/06 10:27:39;;;;;;;10.60;4.83;;;7.00;25.00;;;;;;5028237;28;20463;-68
2024/01/06 10:30:07;;;;;;;9.67;4.80;;;7.00;24.80;;;;;;5027571;28;20468;-66
2024/01/06 10:32:36;;;;;;;10.03;6.90;;;7.10;24.30;;;;;;5028358;28;20471;-66
2024/01/06 10:35:03;;;;;;;10.47;4.93;;;7.00;24.30;;;;;;5022707;28;20561;-66
2024/01/06 10:37:30;;;;;;;8.93;4.87;;;7.10;24.30;;;;;;5031247;28;20491;-68
2024/01/06 10:40:10;;;;;;;9.57;6.77;;;7.10;23.90;;;;;;5028416;28;20482;-69
2024/01/06 10:42:39;;;;;;;12.50;7.00;;;7.10;24.00;;;;;;5025838;28;20460;-67
2024/01/06 10:45:09;;;;;;;11.17;5.50;;;7.10;23.90;;;;;;5026261;28;20463;-66
2024/01/06 10:47:36;;;;;;;30.43;16.63;;;7.10;23.90;;;;;;5030844;28;20517;-66
2024/01/06 10:50:03;;;;;;;28.27;15.87;;;7.10;23.90;;;;;;5030020;28;20470;-67
2024/01/06 10:52:30;;;;;;;9.07;5.03;;;7.20;23.80;;;;;;5026833;28;20506;-66
2024/01/06 10:54:58;;;;;;;8.00;5.50;;;7.20;23.80;;;;;;5025009;28;20474;-66
2024/01/06 10:57:28;;;;;;;9.27;5.80;;;7.20;23.60;;;;;;5027804;28;20462;-68
2024/01/06 10:59:55;;;;;;;9.30;4.77;;;7.20;23.70;;;;;;5023819;28;20467;-67
2024/01/06 11:02:23;;;;;;;11.20;5.57;;;7.20;23.20;;;;;;5027971;28;20481;-67
2024/01/06 11:04:50;;;;;;;7.17;4.70;;;7.20;23.00;;;;;;5025976;28;20463;-66
2024/01/06 11:07:19;;;;;;;8.27;5.23;;;7.20;23.10;;;;;;5026752;28;20499;-68
2024/01/06 11:09:51;;;;;;;12.50;6.00;;;7.20;23.30;;;;;;5027716;28;20463;-67
2024/01/06 11:12:18;;;;;;;11.40;5.73;;;7.20;23.50;;;;;;5028851;28;21129;-66
2024/01/06 11:14:47;;;;;;;9.40;5.73;;;7.20;23.60;;;;;;5024885;28;20495;-66
2024/01/06 11:17:13;;;;;;;8.47;5.13;;;7.20;23.70;;;;;;5022428;28;20468;-66
2024/01/06 11:19:43;;;;;;;9.17;5.50;;;7.20;23.70;;;;;;5023763;28;21009;-66
2024/01/06 11:22:28;;;;;;;10.00;6.43;;;7.20;23.80;;;;;;5027277;28;20542;-66
2024/01/06 11:24:56;;;;;;;12.63;5.23;;;7.20;23.90;;;;;;5025874;28;20887;-65
2024/01/06 11:27:26;;;;;;;9.53;5.10;;;7.20;23.90;;;;;;5027533;28;21039;-66
2024/01/06 11:29:55;;;;;;;10.80;5.73;;;7.20;23.90;;;;;;5023742;28;20986;-67
2024/01/06 11:32:30;;;;;;;12.70;8.23;;;7.10;23.80;;;;;;5025006;28;20478;-67
2024/01/06 11:35:06;;;;;;;21.40;12.43;;;7.20;23.80;;;;;;5027141;28;20466;-66
2024/01/06 11:37:38;;;;;;;9.00;5.80;;;7.20;23.60;;;;;;5026168;28;20546;-66
2024/01/06 11:40:09;;;;;;;10.73;5.53;;;7.20;23.60;;;;;;5027952;28;20501;-70
2024/01/06 11:42:36;;;;;;;11.27;6.40;;;7.30;23.50;;;;;;5028590;28;21513;-66
2024/01/06 11:45:06;;;;;;;13.10;7.80;;;7.30;23.40;;;;;;5024252;28;20468;-66
2024/01/06 11:47:33;;;;;;;21.27;11.57;;;7.30;23.60;;;;;;5029133;28;20911;-68
2024/01/06 11:50:04;;;;;;;13.63;8.77;;;7.20;23.50;;;;;;5029489;28;20474;-67
2024/01/06 11:52:31;;;;;;;11.10;7.50;;;7.20;23.60;;;;;;5026686;28;20490;-67
2024/01/06 11:54:58;;;;;;;15.80;6.10;;;7.20;23.60;;;;;;5025650;28;20488;-66
2024/01/06 11:57:26;;;;;;;9.30;6.33;;;7.30;23.70;;;;;;5023571;28;20474;-68
2024/01/06 11:59:53;;;;;;;9.47;6.50;;;7.30;23.60;;;;;;5024725;28;20464;-67
2024/01/06 12:02:22;;;;;;;9.50;6.60;;;7.30;23.70;;;;;;5025317;28;20485;-67
2024/01/06 12:04:50;;;;;;;8.80;5.80;;;7.30;23.70;;;;;;5024198;28;20467;-67
2024/01/06 12:07:18;;;;;;;8.03;5.27;;;7.30;23.60;;;;;;5025673;28;20462;-67
2024/01/06 12:09:44;;;;;;;10.20;6.20;;;7.30;23.60;;;;;;5031051;28;20455;-66
2024/01/06 12:12:13;;;;;;;9.57;6.20;;;7.30;23.60;;;;;;5054252;28;20467;-67
2024/01/06 12:14:42;;;;;;;10.57;6.50;;;7.30;23.60;;;;;;5039168;28;20476;-67
2024/01/06 12:17:08;;;;;;;13.40;7.83;;;7.30;23.50;;;;;;5022934;28;21003;-66
2024/01/06 12:19:37;;;;;;;11.47;7.83;;;7.30;23.60;;;;;;5025813;28;20466;-67
2024/01/06 12:22:04;;;;;;;9.30;6.40;;;7.40;23.40;;;;;;5024301;28;20495;-67
2024/01/06 12:24:31;;;;;;;11.70;7.30;;;7.40;23.50;;;;;;5019951;28;20468;-67
2024/01/06 12:27:00;;;;;;;9.43;6.83;;;7.40;23.50;;;;;;5025559;28;20467;-66
2024/01/06 12:29:28;;;;;;;12.90;6.43;;;7.40;23.50;;;;;;5025242;28;20451;-67
2024/01/06 12:31:55;;;;;;;10.83;6.20;;;7.40;23.40;;;;;;5024731;28;23109;-67
2024/01/06 12:34:22;;;;;;;8.57;6.10;;;7.40;23.20;;;;;;5024625;28;20486;-67
2024/01/06 12:36:54;;;;;;;8.90;7.07;;;7.50;23.10;;;;;;5027711;28;20517;-66
2024/01/06 12:39:22;;;;;;;10.20;6.50;;;7.50;23.10;;;;;;5026982;28;20465;-67
2024/01/06 12:41:50;;;;;;;12.87;8.10;;;7.50;23.00;;;;;;5025994;28;20459;-66
2024/01/06 12:44:17;;;;;;;10.43;6.60;;;7.40;22.90;;;;;;5023154;28;20483;-66
2024/01/06 12:46:44;;;;;;;14.53;9.60;;;7.50;23.00;;;;;;5024849;28;20458;-66
2024/01/06 12:49:11;;;;;;;13.93;9.20;;;7.50;23.00;;;;;;5031540;28;20455;-66
2024/01/06 12:51:37;;;;;;;14.77;9.93;;;7.50;23.00;;;;;;5030720;28;20951;-68